createdAt,value
2022-12-17T00:02:38.740Z,101299.00
2022-12-17T00:05:24.292Z,101309.94
2022-12-17T00:08:15.155Z,101315.03
2022-12-17T00:11:01.009Z,101311.63
2022-12-17T00:13:46.481Z,101324.38
2022-12-17T00:16:32.034Z,101314.81
2022-12-17T00:19:21.407Z,101316.09
2022-12-17T00:22:06.821Z,101316.41
2022-12-17T00:24:52.132Z,101321.34
2022-12-17T00:27:37.480Z,101316.69
2022-12-17T00:30:23.210Z,101312.53
2022-12-17T00:33:09.628Z,101312.28
2022-12-17T00:35:56.568Z,101323.28
2022-12-17T00:38:41.785Z,101328.19
2022-12-17T00:41:27.123Z,101332.63
2022-12-17T00:44:12.435Z,101329.84
2022-12-17T00:46:57.833Z,101334.31
2022-12-17T00:49:43.099Z,101333.16
2022-12-17T00:52:29.802Z,101333.06
2022-12-17T00:55:15.176Z,101340.28
2022-12-17T00:58:00.243Z,101345.66
2022-12-17T01:00:45.683Z,101342.22
2022-12-17T01:03:31.439Z,101345.34
2022-12-17T01:06:20.596Z,101346.00
2022-12-17T01:09:07.377Z,101350.13
2022-12-17T01:11:52.616Z,101352.28
2022-12-17T01:14:41.900Z,101353.56
2022-12-17T01:17:26.796Z,101362.47
2022-12-17T01:20:14.672Z,101355.50
2022-12-17T01:22:59.956Z,101361.59
2022-12-17T01:25:49.011Z,101372.06
2022-12-17T01:28:40.485Z,101374.69
2022-12-17T01:31:29.096Z,101378.09
2022-12-17T01:34:16.833Z,101381.69
2022-12-17T01:37:02.071Z,101380.69
2022-12-17T01:39:47.416Z,101379.88
2022-12-17T01:42:33.884Z,101388.63
2022-12-17T01:45:19.431Z,101392.69
2022-12-17T01:48:06.476Z,101391.78
2022-12-17T01:50:58.591Z,101394.16
2022-12-17T01:53:46.365Z,101406.94
2022-12-17T01:56:31.694Z,101399.16
2022-12-17T01:59:18.299Z,101405.44
2022-12-17T02:02:03.660Z,101397.13
2022-12-17T02:04:48.807Z,101400.88
2022-12-17T02:07:43.850Z,101405.16
2022-12-17T02:10:42.036Z,101411.97
2022-12-17T02:13:32.526Z,101412.03
2022-12-17T02:16:22.336Z,101420.59
2022-12-17T02:19:11.778Z,101420.50
2022-12-17T02:21:58.241Z,101417.28
2022-12-17T02:24:50.194Z,101421.66
2022-12-17T02:27:36.620Z,101421.66
2022-12-17T02:30:24.332Z,101423.13
2022-12-17T02:33:10.161Z,101430.13
2022-12-17T02:35:58.929Z,101429.47
2022-12-17T02:38:45.076Z,101433.16
2022-12-17T02:41:33.453Z,101428.72
2022-12-17T02:44:35.169Z,101425.13
2022-12-17T02:47:23.018Z,101433.44
2022-12-17T02:50:07.950Z,101434.56
2022-12-17T02:52:55.237Z,101433.88
2022-12-17T02:55:40.489Z,101439.06
2022-12-17T02:58:25.806Z,101442.63
2022-12-17T03:01:12.324Z,101440.41
2022-12-17T03:03:57.466Z,101443.69
2022-12-17T03:06:42.797Z,101440.31
2022-12-17T03:09:28.063Z,101448.00
2022-12-17T03:12:13.446Z,101453.88
2022-12-17T03:14:58.636Z,101456.50
2022-12-17T03:17:45.111Z,101456.66
2022-12-17T03:20:30.484Z,101464.34
2022-12-17T03:23:20.725Z,101470.34
2022-12-17T03:26:06.078Z,101468.50
2022-12-17T03:28:51.361Z,101470.34
2022-12-17T03:31:36.630Z,101478.94
2022-12-17T03:34:23.231Z,101480.25
2022-12-17T03:37:08.406Z,101470.88
2022-12-17T03:39:53.719Z,101479.06
2022-12-17T03:42:39.018Z,101472.38
2022-12-17T03:45:25.238Z,101486.09
2022-12-17T03:48:10.645Z,101488.53
2022-12-17T03:50:59.283Z,101488.59
2022-12-17T03:53:44.546Z,101492.06
2022-12-17T03:56:29.816Z,101495.53
2022-12-17T03:59:15.077Z,101493.91
2022-12-17T04:02:00.592Z,101493.00
2022-12-17T04:04:45.602Z,101492.06
2022-12-17T04:07:32.239Z,101491.13
2022-12-17T04:10:17.604Z,101499.03
2022-12-17T04:13:02.849Z,101487.13
2022-12-17T04:15:48.195Z,101489.69
2022-12-17T04:18:45.069Z,101493.22
2022-12-17T04:21:30.147Z,101494.88
2022-12-17T04:24:16.884Z,101496.72
2022-12-17T04:27:02.042Z,101510.59
2022-12-17T04:29:47.511Z,101499.50
2022-12-17T04:32:35.446Z,101515.69
2022-12-17T04:35:20.839Z,101510.41
2022-12-17T04:38:05.677Z,101508.00
2022-12-17T04:40:52.205Z,101522.72
2022-12-17T04:43:37.958Z,101511.66
2022-12-17T04:46:23.277Z,101517.59
2022-12-17T04:49:08.465Z,101519.31
2022-12-17T04:51:53.647Z,101522.81
2022-12-17T04:54:38.920Z,101526.25
2022-12-17T04:57:25.612Z,101529.41
2022-12-17T05:00:10.907Z,101533.78
2022-12-17T05:02:56.371Z,101536.38
2022-12-17T05:05:41.408Z,101536.47
2022-12-17T05:08:26.621Z,101534.78
2022-12-17T05:11:11.972Z,101535.59
2022-12-17T05:13:58.525Z,101536.31
2022-12-17T05:16:43.802Z,101543.44
2022-12-17T05:19:29.085Z,101547.78
2022-12-17T05:22:14.447Z,101553.78
2022-12-17T05:24:59.730Z,101553.03
2022-12-17T05:27:44.981Z,101549.47
2022-12-17T05:30:31.275Z,101554.44
2022-12-17T05:33:17.580Z,101553.47
2022-12-17T05:36:02.984Z,101569.31
2022-12-17T05:38:48.381Z,101573.72
2022-12-17T05:41:33.676Z,101569.31
2022-12-17T05:44:19.026Z,101581.25
2022-12-17T05:47:05.601Z,101590.06
2022-12-17T05:49:50.929Z,101584.06
2022-12-17T05:52:36.292Z,101586.63
2022-12-17T05:55:21.581Z,101592.59
2022-12-17T05:58:06.911Z,101595.16
2022-12-17T06:01:00.687Z,101591.78
2022-12-17T06:03:47.368Z,101595.25
2022-12-17T06:06:32.669Z,101597.78
2022-12-17T06:09:17.984Z,101605.53
2022-12-17T06:12:03.317Z,101606.31
2022-12-17T06:14:44.750Z,101609.72
2022-12-17T06:17:30.012Z,101613.88
2022-12-17T06:20:16.710Z,101619.59
2022-12-17T06:23:01.840Z,101627.22
2022-12-17T06:25:47.042Z,101636.50
2022-12-17T06:28:32.224Z,101635.53
2022-12-17T06:31:17.557Z,101628.53
2022-12-17T06:33:59.129Z,101636.75
2022-12-17T06:36:45.665Z,101633.19
2022-12-17T06:39:30.989Z,101636.25
2022-12-17T06:42:16.203Z,101643.66
2022-12-17T06:45:01.389Z,101640.00
2022-12-17T06:47:46.748Z,101645.63
2022-12-17T06:50:28.382Z,101651.38
2022-12-17T06:53:19.606Z,101651.13
2022-12-17T06:56:13.324Z,101650.94
2022-12-17T06:58:58.590Z,101667.09
2022-12-17T07:01:44.399Z,101665.34
2022-12-17T07:04:44.410Z,101670.28
2022-12-17T07:07:29.163Z,101682.22
2022-12-17T07:10:21.373Z,101683.91
2022-12-17T07:13:06.916Z,101682.00
2022-12-17T07:15:52.157Z,101681.94
2022-12-17T07:18:37.526Z,101690.25
2022-12-17T07:21:22.726Z,101700.16
2022-12-17T07:24:08.056Z,101706.97
2022-12-17T07:26:54.791Z,101708.63
2022-12-17T07:29:40.105Z,101715.19
2022-12-17T07:32:25.482Z,101704.69
2022-12-17T07:35:10.724Z,101706.97
2022-12-17T07:37:55.938Z,101715.28
2022-12-17T07:40:41.299Z,101733.00
2022-12-17T07:43:30.291Z,101737.88
2022-12-17T07:46:20.867Z,101748.88
2022-12-17T07:49:08.432Z,101745.31
2022-12-17T07:51:53.778Z,101744.47
2022-12-17T07:54:39.152Z,101747.94
2022-12-17T07:57:24.197Z,101747.94
2022-12-17T08:00:25.287Z,101752.16
2022-12-17T08:03:15.286Z,101755.38
2022-12-17T08:06:00.276Z,101764.56
2022-12-17T08:08:45.550Z,101762.25
2022-12-17T08:11:30.951Z,101763.06
2022-12-17T08:14:16.456Z,101771.44
2022-12-17T08:17:03.266Z,101762.41
2022-12-17T08:19:48.763Z,101784.22
2022-12-17T08:22:31.892Z,101785.66
2022-12-17T08:25:17.179Z,101790.34
2022-12-17T08:28:04.578Z,101783.31
2022-12-17T08:30:55.838Z,101791.47
2022-12-17T08:33:42.401Z,101791.38
2022-12-17T08:36:27.781Z,101792.88
2022-12-17T08:39:12.990Z,101798.75
2022-12-17T08:42:03.960Z,101794.25
2022-12-17T08:44:49.615Z,101790.19
2022-12-17T08:47:35.334Z,101798.72
2022-12-17T08:50:22.868Z,101800.28
2022-12-17T08:53:08.191Z,101820.16
2022-12-17T08:55:59.782Z,101816.50
2022-12-17T08:58:59.300Z,101817.31
2022-12-17T09:01:48.161Z,101811.41
2022-12-17T09:04:36.232Z,101815.91
2022-12-17T09:07:31.903Z,101825.25
2022-12-17T09:10:40.386Z,101817.53
2022-12-17T09:13:37.446Z,101827.06
2022-12-17T09:16:23.272Z,101829.56
2022-12-17T09:19:09.062Z,101830.91
2022-12-17T09:21:54.270Z,101825.06
2022-12-17T09:24:40.576Z,101828.47
2022-12-17T09:27:25.975Z,101833.44
2022-12-17T09:30:11.413Z,101837.56
2022-12-17T09:32:56.652Z,101835.13
2022-12-17T09:35:41.807Z,101835.22
2022-12-17T09:38:30.178Z,101836.09
2022-12-17T09:41:19.315Z,101839.88
2022-12-17T09:44:09.817Z,101840.00
2022-12-17T09:46:59.797Z,101850.09
2022-12-17T09:49:47.716Z,101838.81
2022-12-17T09:52:38.664Z,101845.97
2022-12-17T09:55:37.476Z,101837.81
2022-12-17T09:58:24.735Z,101843.00
2022-12-17T10:01:11.494Z,101850.03
2022-12-17T10:03:57.637Z,101846.28
2022-12-17T10:06:44.240Z,101854.44
2022-12-17T10:09:37.474Z,101850.09
2022-12-17T10:12:31.547Z,101851.75
2022-12-17T10:15:18.165Z,101851.00
2022-12-17T10:18:03.527Z,101847.38
2022-12-17T10:21:03.894Z,101853.34
2022-12-17T10:23:50.971Z,101859.13
2022-12-17T10:26:38.819Z,101854.28
2022-12-17T10:29:30.608Z,101858.84
2022-12-17T10:32:28.070Z,101867.38
2022-12-17T10:35:13.392Z,101873.38
2022-12-17T10:37:55.168Z,101867.31
2022-12-17T10:40:44.021Z,101865.28
2022-12-17T10:43:39.735Z,101861.72
2022-12-17T10:46:25.239Z,101854.91
2022-12-17T10:49:22.072Z,101866.16
2022-12-17T10:52:08.094Z,101865.44
2022-12-17T10:54:58.906Z,101862.75
2022-12-17T10:57:49.398Z,101866.56
2022-12-17T11:00:49.065Z,101862.66
2022-12-17T11:03:43.131Z,101870.59
2022-12-17T11:06:30.134Z,101861.94
2022-12-17T11:09:15.820Z,101869.56
2022-12-17T11:12:07.099Z,101874.66
2022-12-17T11:15:00.739Z,101876.34
2022-12-17T11:17:47.078Z,101876.91
2022-12-17T11:20:40.971Z,101875.50
2022-12-17T11:23:33.214Z,101874.59
2022-12-17T11:26:22.005Z,101877.41
2022-12-17T11:29:07.434Z,101879.75
2022-12-17T11:32:06.966Z,101879.41
2022-12-17T11:35:07.561Z,101877.28
2022-12-17T11:37:57.556Z,101880.28
2022-12-17T11:40:49.454Z,101883.81
2022-12-17T11:43:40.480Z,101887.28
2022-12-17T11:46:35.892Z,101887.28
2022-12-17T11:49:30.339Z,101883.06
2022-12-17T11:52:20.777Z,101871.81
2022-12-17T11:55:11.523Z,101878.97
2022-12-17T11:58:04.328Z,101872.50
2022-12-17T12:00:52.697Z,101887.69
2022-12-17T12:03:46.833Z,101885.63
2022-12-17T12:06:36.512Z,101883.00
2022-12-17T12:09:30.956Z,101892.00
2022-12-17T12:12:22.225Z,101895.72
2022-12-17T12:15:14.833Z,101894.69
2022-12-17T12:18:05.001Z,101896.78
2022-12-17T12:21:14.098Z,101895.75
2022-12-17T12:24:07.963Z,101896.66
2022-12-17T12:27:00.840Z,101890.69
2022-12-17T12:29:52.083Z,101882.22
2022-12-17T12:32:43.858Z,101881.63
2022-12-17T12:35:34.051Z,101882.09
2022-12-17T12:38:19.497Z,101891.69
2022-12-17T12:41:07.358Z,101897.13
2022-12-17T12:43:54.367Z,101893.00
2022-12-17T12:46:43.424Z,101887.28
2022-12-17T12:49:37.129Z,101884.63
2022-12-17T12:52:22.421Z,101886.56
2022-12-17T12:55:11.763Z,101877.41
2022-12-17T12:57:59.014Z,101887.34
2022-12-17T13:00:47.972Z,101881.16
2022-12-17T13:03:40.038Z,101880.00
2022-12-17T13:06:09.319Z,101882.84
2022-12-17T13:08:37.525Z,101879.72
2022-12-17T13:11:25.732Z,101873.97
2022-12-17T13:13:56.793Z,101877.78
2022-12-17T13:16:32.776Z,101877.78
2022-12-17T13:19:06.034Z,101879.66
2022-12-17T13:21:35.965Z,101869.91
2022-12-17T13:24:11.930Z,101865.44
2022-12-17T13:26:46.382Z,101876.28
2022-12-17T13:29:22.666Z,101876.63
2022-12-17T13:32:04.539Z,101880.63
2022-12-17T13:34:41.303Z,101878.25
2022-12-17T13:37:14.326Z,101875.84
2022-12-17T13:39:47.173Z,101882.72
2022-12-17T13:42:19.403Z,101881.94
2022-12-17T13:44:47.714Z,101892.88
2022-12-17T13:47:21.875Z,101890.16
2022-12-17T13:50:24.418Z,101890.47
2022-12-17T13:52:40.705Z,101883.44
2022-12-17T13:55:11.242Z,101869.31
2022-12-17T13:57:45.698Z,101872.81
2022-12-17T14:00:22.624Z,101883.31
2022-12-17T14:02:50.556Z,101877.72
2022-12-17T14:05:25.150Z,101883.41
2022-12-17T14:07:54.651Z,101875.84
2022-12-17T14:10:22.567Z,101882.47
2022-12-17T14:12:50.058Z,101879.66
2022-12-17T14:15:25.648Z,101878.63
2022-12-17T14:17:58.851Z,101881.03
2022-12-17T14:20:27.848Z,101873.69
2022-12-17T14:23:03.288Z,101881.53
2022-12-17T14:25:33.867Z,101870.09
2022-12-17T14:28:04.637Z,101874.03
2022-12-17T14:30:46.341Z,101878.50
2022-12-17T14:33:31.068Z,101887.28
2022-12-17T14:35:59.991Z,101893.00
2022-12-17T14:38:38.999Z,101889.75
2022-12-17T14:41:31.829Z,101885.56
2022-12-17T14:44:01.258Z,101889.13
2022-12-17T14:46:31.330Z,101886.34
2022-12-17T14:49:16.172Z,101882.31
2022-12-17T14:51:44.112Z,101898.03
2022-12-17T14:54:31.296Z,101904.25
2022-12-17T14:57:01.791Z,101910.63
2022-12-17T14:59:34.699Z,101903.31
2022-12-17T15:02:05.900Z,101914.53
2022-12-17T15:04:33.981Z,101908.50
2022-12-17T15:07:02.341Z,101913.50
2022-12-17T15:09:32.732Z,101904.94
2022-12-17T15:12:00.625Z,101904.25
2022-12-17T15:14:29.966Z,101909.00
2022-12-17T15:16:59.224Z,101918.69
2022-12-17T15:19:26.792Z,101916.00
2022-12-17T15:21:54.354Z,101917.06
2022-12-17T15:24:24.982Z,101925.56
2022-12-17T15:26:55.004Z,101925.69
2022-12-17T15:29:24.287Z,101930.09
2022-12-17T15:31:51.957Z,101935.31
2022-12-17T15:34:19.674Z,101933.63
2022-12-17T15:36:47.923Z,101935.41
2022-12-17T15:39:15.674Z,101932.88
2022-12-17T15:42:00.622Z,101937.53
2022-12-17T15:44:29.701Z,101942.63
2022-12-17T15:47:53.927Z,101927.13
2022-12-17T15:50:47.014Z,101936.69
2022-12-17T15:53:14.812Z,101934.16
2022-12-17T15:55:42.699Z,101934.88
2022-12-17T15:58:29.412Z,101942.63
2022-12-17T16:01:15.174Z,101936.84
2022-12-17T16:04:25.406Z,101930.84
2022-12-17T16:06:53.200Z,101948.97
2022-12-17T16:09:24.351Z,101946.22
2022-12-17T16:11:54.486Z,101942.00
2022-12-17T16:14:24.549Z,101945.63
2022-12-17T16:16:54.387Z,101952.75
2022-12-17T16:19:26.079Z,101962.06
2022-12-17T16:21:53.852Z,101959.41
2022-12-17T16:24:22.690Z,101965.41
2022-12-17T16:26:52.113Z,101968.84
2022-12-17T16:29:19.760Z,101960.22
2022-12-17T16:31:47.608Z,101970.50
2022-12-17T16:34:17.112Z,101977.38
2022-12-17T16:37:12.405Z,101978.00
2022-12-17T16:39:39.971Z,101975.59
2022-12-17T16:42:08.293Z,101975.22
2022-12-17T16:44:38.160Z,101973.09
2022-12-17T16:47:06.934Z,101973.56
2022-12-17T16:49:43.695Z,101976.53
2022-12-17T16:52:26.879Z,101974.97
2022-12-17T16:55:01.444Z,101984.69
2022-12-17T16:57:36.529Z,101977.88
2022-12-17T17:00:04.987Z,101989.03
2022-12-17T17:02:33.262Z,101982.06
2022-12-17T17:05:02.367Z,101977.53
2022-12-17T17:07:32.951Z,101985.25
2022-12-17T17:10:00.763Z,101989.41
2022-12-17T17:12:28.524Z,101994.53
2022-12-17T17:14:56.418Z,101993.66
2022-12-17T17:17:54.340Z,101992.84
2022-12-17T17:20:17.292Z,101997.28
2022-12-17T17:22:50.373Z,102006.16
2022-12-17T17:25:21.190Z,102000.53
2022-12-17T17:27:49.082Z,101996.25
2022-12-17T17:30:17.226Z,102002.66
2022-12-17T17:32:45.097Z,101996.25
2022-12-17T17:35:12.806Z,102001.16
2022-12-17T17:37:42.329Z,101994.44
2022-12-17T17:40:11.822Z,101999.22
2022-12-17T17:42:39.739Z,102006.19
2022-12-17T17:45:09.043Z,102000.38
2022-12-17T17:47:36.839Z,102008.22
2022-12-17T17:50:04.983Z,102011.75
2022-12-17T17:52:32.861Z,102004.97
2022-12-17T17:55:02.395Z,102006.66
2022-12-17T17:57:35.617Z,102012.66
2022-12-17T18:00:04.247Z,102008.38
2022-12-17T18:02:32.471Z,102011.19
2022-12-17T18:05:06.709Z,102013.88
2022-12-17T18:07:39.266Z,102011.94
2022-12-17T18:10:09.920Z,102021.94
2022-12-17T18:12:59.599Z,102022.03
2022-12-17T18:15:27.373Z,102016.84
2022-12-17T18:17:55.365Z,102018.69
2022-12-17T18:20:23.858Z,102021.19
2022-12-17T18:22:51.514Z,102026.63
2022-12-17T18:25:23.067Z,102027.63
2022-12-17T18:27:52.872Z,102017.84
2022-12-17T18:30:21.324Z,102014.53
2022-12-17T18:32:48.804Z,102028.38
2022-12-17T18:35:16.612Z,102020.66
2022-12-17T18:37:44.105Z,102023.41
2022-12-17T18:40:12.149Z,102024.34
2022-12-17T18:43:00.599Z,102040.84
2022-12-17T18:45:28.106Z,102039.81
2022-12-17T18:47:55.642Z,102033.84
2022-12-17T18:50:23.196Z,102042.72
2022-12-17T18:52:50.739Z,102044.63
2022-12-17T18:55:18.405Z,102044.72
2022-12-17T18:57:47.304Z,102041.25
2022-12-17T19:00:15.831Z,102053.53
2022-12-17T19:02:44.180Z,102050.13
2022-12-17T19:05:12.020Z,102056.94
2022-12-17T19:07:39.510Z,102051.84
2022-12-17T19:10:07.984Z,102055.34
2022-12-17T19:12:35.750Z,102051.94
2022-12-17T19:15:05.114Z,102054.34
2022-12-17T19:17:32.668Z,102068.09
2022-12-17T19:20:00.174Z,102063.72
2022-12-17T19:22:27.747Z,102059.41
2022-12-17T19:24:55.289Z,102049.72
2022-12-17T19:27:22.877Z,102053.03
2022-12-17T19:29:50.485Z,102058.09
2022-12-17T19:32:36.443Z,102054.91
2022-12-17T19:35:08.660Z,102057.53
2022-12-17T19:37:36.471Z,102047.22
2022-12-17T19:40:04.741Z,102057.44
2022-12-17T19:42:37.430Z,102067.91
2022-12-17T19:45:06.130Z,102058.28
2022-12-17T19:47:35.169Z,102055.81
2022-12-17T19:50:04.973Z,102055.81
2022-12-17T19:52:32.771Z,102062.69
2022-12-17T19:55:00.381Z,102066.88
2022-12-17T19:57:28.194Z,102068.66
2022-12-17T19:59:55.935Z,102053.81
2022-12-17T20:02:28.352Z,102056.31
2022-12-17T20:05:00.170Z,102051.19
2022-12-17T20:07:27.846Z,102058.28
2022-12-17T20:09:55.499Z,102060.25
2022-12-17T20:12:23.161Z,102065.63
2022-12-17T20:14:51.160Z,102061.19
2022-12-17T20:17:20.425Z,102064.00
2022-12-17T20:19:49.501Z,102065.78
2022-12-17T20:22:18.508Z,102066.81
2022-12-17T20:24:46.194Z,102073.75
2022-12-17T20:27:13.918Z,102078.09
2022-12-17T20:29:41.608Z,102097.19
2022-12-17T20:32:09.288Z,102096.16
2022-12-17T20:34:36.933Z,102085.66
2022-12-17T20:37:04.641Z,102095.22
2022-12-17T20:39:33.701Z,102100.47
2022-12-17T20:42:01.491Z,102110.34
2022-12-17T20:44:29.236Z,102103.44
2022-12-17T20:46:56.955Z,102103.69
2022-12-17T20:49:24.729Z,102099.22
2022-12-17T20:51:52.354Z,102095.75
2022-12-17T20:54:21.438Z,102105.16
2022-12-17T20:56:50.695Z,102110.63
2022-12-17T20:59:19.782Z,102104.59
2022-12-17T21:01:53.005Z,102090.84
2022-12-17T21:04:23.472Z,102086.69
2022-12-17T21:06:51.182Z,102093.69
2022-12-17T21:09:20.949Z,102091.06
2022-12-17T21:11:50.085Z,102087.56
2022-12-17T21:14:19.390Z,102097.06
2022-12-17T21:16:47.634Z,102099.09
2022-12-17T21:19:16.440Z,102094.06
2022-12-17T21:21:44.508Z,102106.47
2022-12-17T21:24:12.528Z,102103.97
2022-12-17T21:26:42.169Z,102096.34
2022-12-17T21:29:11.581Z,102110.03
2022-12-17T21:31:40.797Z,102111.63
2022-12-17T21:34:10.849Z,102120.44
2022-12-17T21:36:38.642Z,102121.94
2022-12-17T21:39:08.978Z,102116.88
2022-12-17T21:41:44.657Z,102133.03
2022-12-17T21:44:15.454Z,102127.91
2022-12-17T21:46:44.024Z,102122.69
2022-12-17T21:49:17.576Z,102124.50
2022-12-17T21:51:45.752Z,102126.25
2022-12-17T21:54:19.713Z,102128.88
2022-12-17T21:56:48.282Z,102130.81
2022-12-17T21:59:17.754Z,102130.06
2022-12-17T22:01:45.779Z,102140.41
2022-12-17T22:04:13.604Z,102143.97
2022-12-17T22:06:46.617Z,102143.97
2022-12-17T22:09:29.436Z,102143.00
2022-12-17T22:12:26.849Z,102122.47
2022-12-17T22:14:55.901Z,102141.44
2022-12-17T22:17:24.144Z,102136.38
2022-12-17T22:20:00.720Z,102133.00
2022-12-17T22:22:30.612Z,102128.53
2022-12-17T22:25:00.893Z,102133.00
2022-12-17T22:27:32.416Z,102136.31
2022-12-17T22:30:19.170Z,102117.47
2022-12-17T22:33:03.110Z,102127.53
2022-12-17T22:37:08.620Z,102122.38
2022-12-17T22:42:53.389Z,102132.84
2022-12-17T22:44:33.478Z,102135.53
2022-12-17T22:44:48.488Z,102128.88
2022-12-17T22:47:17.768Z,102121.09
2022-12-17T22:49:45.635Z,102118.59
2022-12-17T22:52:17.508Z,102125.38
2022-12-17T22:54:46.637Z,102132.28
2022-12-17T22:57:36.688Z,102130.59
2022-12-17T23:00:02.492Z,102134.22
2022-12-17T23:02:32.146Z,102136.78
2022-12-17T23:05:00.855Z,102135.94
2022-12-17T23:07:33.367Z,102136.94
2022-12-17T23:10:01.024Z,102133.66
2022-12-17T23:12:46.242Z,102138.78
2022-12-17T23:15:13.933Z,102136.25
2022-12-17T23:17:43.057Z,102138.13
2022-12-17T23:20:12.116Z,102124.25
2022-12-17T23:22:42.634Z,102122.50
2022-12-17T23:25:11.041Z,102117.34
2022-12-17T23:27:38.943Z,102125.25
2022-12-17T23:30:10.363Z,102127.72
2022-12-17T23:32:38.100Z,102120.16
2022-12-17T23:35:08.313Z,102137.31
2022-12-17T23:37:39.993Z,102130.59
2022-12-17T23:40:09.389Z,102137.50
2022-12-17T23:42:37.046Z,102141.06
2022-12-17T23:45:05.901Z,102147.13
2022-12-17T23:47:33.558Z,102141.06
2022-12-17T23:50:01.245Z,102140.28
2022-12-17T23:52:30.448Z,102145.31
2022-12-17T23:55:01.449Z,102146.28
2022-12-17T23:57:29.718Z,102137.63
